Time;durP1;ratioP1;P1;durP2;ratioP2;P2;SDS_P1;SDS_P2;PMS_P1;PMS_P2;Temp;Humidity;BMP_temperature;BMP_pressure;BME280_temperature;BME280_humidity;BME280_pressure;Samples;Min_cycle;Max_cycle;Signal;HPM_P1;HPM_P2
2021/05/09 00:01:05;;;;;;;1.50;1.40;;;23.30;28.90;;;;;;5033133;28;20218;-54
2021/05/09 00:03:31;;;;;;;1.60;1.48;;;23.30;28.90;;;;;;5032898;28;20539;-52
2021/05/09 00:05:57;;;;;;;2.30;1.25;;;23.30;28.90;;;;;;5032655;28;20238;-49
2021/05/09 00:08:23;;;;;;;1.80;1.40;;;23.30;28.90;;;;;;5032194;28;20546;-45
2021/05/09 00:10:49;;;;;;;1.67;1.58;;;23.30;28.90;;;;;;5033502;28;20298;-48
2021/05/09 00:13:15;;;;;;;1.77;1.23;;;23.30;28.90;;;;;;5033476;28;20199;-46
2021/05/09 00:15:42;;;;;;;1.85;1.40;;;23.30;29.00;;;;;;5032840;28;20226;-49
2021/05/09 00:18:08;;;;;;;1.40;1.30;;;23.30;29.00;;;;;;5032923;28;20673;-47
2021/05/09 00:20:34;;;;;;;1.30;1.25;;;23.30;29.00;;;;;;5033494;28;20206;-46
2021/05/09 00:23:00;;;;;;;1.73;1.30;;;23.30;29.00;;;;;;5033227;28;20238;-47
2021/05/09 00:25:26;;;;;;;2.22;1.30;;;23.30;29.00;;;;;;5032487;28;20700;-50
2021/05/09 00:27:52;;;;;;;1.40;1.30;;;23.30;29.00;;;;;;5033249;28;20207;-46
2021/05/09 00:30:19;;;;;;;1.35;1.25;;;23.30;29.10;;;;;;5032747;28;20568;-46
2021/05/09 00:32:45;;;;;;;1.50;1.25;;;23.30;29.10;;;;;;5019202;28;20194;-49
2021/05/09 00:35:11;;;;;;;1.45;1.23;;;23.30;29.10;;;;;;5032558;28;20222;-48
2021/05/09 00:37:37;;;;;;;1.40;1.30;;;23.30;29.20;;;;;;5033363;28;20218;-50
2021/05/09 00:40:03;;;;;;;1.40;1.25;;;23.30;29.20;;;;;;5032384;28;20213;-45
2021/05/09 00:42:29;;;;;;;1.42;1.20;;;23.30;29.20;;;;;;5033041;28;20257;-47
2021/05/09 00:44:55;;;;;;;2.65;1.40;;;23.30;29.20;;;;;;5031706;28;20698;-52
2021/05/09 00:47:21;;;;;;;1.55;1.42;;;23.30;29.30;;;;;;5032051;28;20225;-47
2021/05/09 00:49:47;;;;;;;1.42;1.33;;;23.30;29.20;;;;;;5032773;28;20207;-46
2021/05/09 00:52:13;;;;;;;2.17;1.27;;;23.30;29.30;;;;;;5032749;28;20280;-49
2021/05/09 00:54:39;;;;;;;1.35;1.25;;;23.30;29.30;;;;;;5031901;28;20317;-45
2021/05/09 00:57:05;;;;;;;1.40;1.10;;;23.30;29.30;;;;;;5032440;28;20654;-50
2021/05/09 00:59:31;;;;;;;1.20;1.10;;;23.30;29.30;;;;;;5032134;28;20209;-47
2021/05/09 01:01:58;;;;;;;1.27;1.17;;;23.30;29.30;;;;;;5032053;28;20254;-48
2021/05/09 01:04:24;;;;;;;1.48;1.35;;;23.30;29.30;;;;;;5031499;28;20206;-45
2021/05/09 01:06:49;;;;;;;1.55;1.02;;;23.30;29.30;;;;;;5032246;28;20230;-48
2021/05/09 01:09:15;;;;;;;1.80;1.17;;;23.30;29.30;;;;;;5031449;28;20229;-51
2021/05/09 01:11:41;;;;;;;1.23;1.13;;;23.30;29.30;;;;;;5021541;28;20210;-46
2021/05/09 01:14:07;;;;;;;1.30;1.20;;;23.20;29.20;;;;;;5026567;28;20202;-44
2021/05/09 01:16:33;;;;;;;1.20;1.10;;;23.30;29.30;;;;;;5031958;28;20962;-49
2021/05/09 01:18:59;;;;;;;1.95;1.20;;;23.30;29.20;;;;;;5032074;28;20210;-49
2021/05/09 01:21:25;;;;;;;1.85;1.30;;;23.30;29.30;;;;;;5032290;28;20252;-47
2021/05/09 01:23:51;;;;;;;1.20;1.10;;;23.30;29.30;;;;;;5031261;28;20199;-48
2021/05/09 01:26:17;;;;;;;4.03;1.23;;;23.30;29.30;;;;;;5031962;28;20226;-46
2021/05/09 01:28:43;;;;;;;1.63;1.10;;;23.30;29.30;;;;;;5031466;28;20606;-46
2021/05/09 01:31:09;;;;;;;1.00;1.00;;;23.30;29.30;;;;;;5032227;28;20214;-47
2021/05/09 01:33:35;;;;;;;1.90;1.10;;;23.30;29.40;;;;;;5031494;28;20240;-47
2021/05/09 01:36:01;;;;;;;1.40;1.30;;;23.30;29.40;;;;;;5031549;28;20226;-46
2021/05/09 01:38:27;;;;;;;1.73;1.63;;;23.30;29.40;;;;;;5052462;22;20260;-46
2021/05/09 01:40:53;;;;;;;3.10;1.10;;;23.30;29.40;;;;;;5051308;28;20198;-45
2021/05/09 01:43:19;;;;;;;1.88;1.20;;;23.30;29.40;;;;;;5051486;28;20202;-44
2021/05/09 01:45:45;;;;;;;2.10;1.13;;;23.30;29.50;;;;;;5050610;28;20222;-46
2021/05/09 01:48:11;;;;;;;1.67;1.30;;;23.30;29.50;;;;;;5051056;28;20205;-40
2021/05/09 01:50:38;;;;;;;2.13;1.20;;;23.30;29.50;;;;;;5051133;28;20558;-46
2021/05/09 01:53:04;;;;;;;1.65;1.30;;;23.30;29.50;;;;;;5051115;28;20202;-44
2021/05/09 01:55:30;;;;;;;1.25;1.15;;;23.30;29.50;;;;;;5050810;28;20217;-44
2021/05/09 01:57:56;;;;;;;1.77;1.10;;;23.30;29.60;;;;;;5050649;28;20198;-46
2021/05/09 02:00:22;;;;;;;2.03;1.10;;;23.30;29.60;;;;;;5050910;28;20197;-44
2021/05/09 02:02:48;;;;;;;2.95;1.30;;;23.30;29.60;;;;;;5050097;28;20282;-44
2021/05/09 02:05:14;;;;;;;1.30;1.20;;;23.30;29.60;;;;;;5050781;28;20222;-42
2021/05/09 02:07:40;;;;;;;1.90;1.00;;;23.30;29.60;;;;;;5051040;28;20198;-47
2021/05/09 02:10:06;;;;;;;1.80;1.50;;;23.30;29.60;;;;;;5050343;28;20198;-44
2021/05/09 02:12:32;;;;;;;1.55;1.45;;;23.30;29.60;;;;;;5049750;28;20618;-43
2021/05/09 02:14:58;;;;;;;2.10;1.10;;;23.30;29.60;;;;;;5049578;28;20232;-46
2021/05/09 02:17:24;;;;;;;1.50;1.20;;;23.30;29.60;;;;;;5049786;28;20197;-44
2021/05/09 02:19:50;;;;;;;1.63;1.20;;;23.30;29.60;;;;;;5049534;28;20201;-44
2021/05/09 02:22:16;;;;;;;1.38;1.17;;;23.30;29.60;;;;;;5049913;28;20225;-43
2021/05/09 02:24:42;;;;;;;1.65;1.15;;;23.30;29.60;;;;;;5050325;28;20224;-41
2021/05/09 02:27:08;;;;;;;1.37;1.27;;;23.30;29.60;;;;;;5050335;28;20206;-46
2021/05/09 02:29:34;;;;;;;1.65;1.13;;;23.30;29.60;;;;;;5050541;28;20222;-41
2021/05/09 02:32:00;;;;;;;1.17;1.08;;;23.30;29.60;;;;;;5050485;28;20198;-46
2021/05/09 02:34:26;;;;;;;2.20;1.10;;;23.30;29.70;;;;;;5049677;28;20714;-45
2021/05/09 02:36:52;;;;;;;1.55;1.20;;;23.20;29.50;;;;;;5050772;28;20197;-43
2021/05/09 02:39:18;;;;;;;1.75;1.13;;;23.30;29.70;;;;;;5050466;28;20210;-41
2021/05/09 02:41:44;;;;;;;1.52;1.40;;;23.30;29.60;;;;;;5050798;28;20230;-39
2021/05/09 02:44:10;;;;;;;1.52;1.10;;;23.20;29.60;;;;;;5049468;28;20254;-42
2021/05/09 02:46:36;;;;;;;1.97;1.00;;;23.30;29.70;;;;;;5050095;28;20654;-39
2021/05/09 02:49:02;;;;;;;1.80;1.38;;;23.30;29.70;;;;;;5050347;28;20296;-39
2021/05/09 02:51:28;;;;;;;1.20;1.10;;;23.30;29.70;;;;;;5050845;28;20210;-40
2021/05/09 02:53:54;;;;;;;2.20;1.35;;;23.30;29.70;;;;;;5049622;28;20205;-40
2021/05/09 02:56:20;;;;;;;1.10;1.00;;;23.30;29.70;;;;;;5050324;28;20240;-42
2021/05/09 02:58:46;;;;;;;1.40;1.02;;;23.30;29.80;;;;;;5050178;28;20198;-40
2021/05/09 03:01:12;;;;;;;1.25;1.10;;;23.30;29.80;;;;;;5049987;28;20245;-40
2021/05/09 03:03:37;;;;;;;1.30;1.20;;;23.20;29.80;;;;;;5049444;28;20197;-39
2021/05/09 03:06:03;;;;;;;2.72;1.20;;;23.20;29.80;;;;;;5050141;28;20287;-42
2021/05/09 03:08:29;;;;;;;1.25;1.15;;;23.30;29.80;;;;;;5049811;28;20202;-39
2021/05/09 03:10:55;;;;;;;1.37;1.00;;;23.20;29.80;;;;;;5049878;28;20285;-41
2021/05/09 03:13:21;;;;;;;1.30;1.20;;;23.30;29.90;;;;;;5042907;28;20218;-39
2021/05/09 03:15:47;;;;;;;1.65;1.23;;;23.20;29.90;;;;;;5049327;28;20213;-40
2021/05/09 03:18:13;;;;;;;1.60;1.23;;;23.20;29.90;;;;;;5049024;28;20564;-39
2021/05/09 03:20:39;;;;;;;1.60;1.10;;;23.20;29.80;;;;;;5049858;28;20190;-39
2021/05/09 03:23:05;;;;;;;1.63;1.52;;;23.20;29.80;;;;;;5050430;28;20237;-39
2021/05/09 03:25:31;;;;;;;2.00;1.10;;;23.20;29.80;;;;;;5049103;28;20229;-40
2021/05/09 03:27:57;;;;;;;1.48;1.38;;;23.20;29.80;;;;;;5049859;28;20621;-40
2021/05/09 03:30:23;;;;;;;1.00;1.00;;;23.20;29.80;;;;;;5050320;28;20206;-39
2021/05/09 03:32:49;;;;;;;1.33;1.20;;;23.30;29.80;;;;;;5051683;28;20198;-39
2021/05/09 03:35:15;;;;;;;1.10;1.00;;;23.20;29.80;;;;;;5053393;28;20232;-40
2021/05/09 03:37:41;;;;;;;1.15;1.05;;;23.20;29.70;;;;;;5053676;28;20209;-40
2021/05/09 03:40:07;;;;;;;0.90;0.90;;;23.20;29.80;;;;;;5053570;28;20684;-43
2021/05/09 03:42:33;;;;;;;0.93;0.93;;;23.30;29.90;;;;;;5053515;28;20225;-40
2021/05/09 03:44:59;;;;;;;1.27;1.00;;;23.20;29.80;;;;;;5052270;28;20245;-40
2021/05/09 03:47:26;;;;;;;1.40;1.27;;;23.30;29.90;;;;;;5053370;28;20654;-47
2021/05/09 03:49:52;;;;;;;1.10;1.05;;;23.30;29.90;;;;;;5053510;28;20293;-46
2021/05/09 03:52:18;;;;;;;1.30;1.17;;;23.30;29.90;;;;;;5053680;28;20217;-49
2021/05/09 03:54:44;;;;;;;1.40;1.20;;;23.20;29.90;;;;;;5052844;28;20237;-48
2021/05/09 03:57:10;;;;;;;1.00;1.00;;;23.30;29.90;;;;;;5053422;28;20198;-47
2021/05/09 03:59:36;;;;;;;1.30;1.13;;;23.30;30.00;;;;;;5053333;28;20570;-48
2021/05/09 04:02:02;;;;;;;1.33;1.10;;;23.20;29.90;;;;;;5053921;28;20275;-46
2021/05/09 04:04:28;;;;;;;1.30;1.20;;;23.20;29.90;;;;;;5052986;28;20373;-45
2021/05/09 04:06:54;;;;;;;1.30;1.20;;;23.20;29.90;;;;;;5050775;28;20658;-43
2021/05/09 04:09:20;;;;;;;1.55;1.30;;;23.20;30.00;;;;;;5050751;28;20210;-43
2021/05/09 04:11:46;;;;;;;2.47;1.00;;;23.20;30.00;;;;;;5053999;28;20590;-40
2021/05/09 04:14:12;;;;;;;1.77;1.25;;;23.30;30.00;;;;;;5052655;28;20267;-41
2021/05/09 04:16:38;;;;;;;1.40;1.20;;;23.30;30.00;;;;;;5050788;28;20202;-41
2021/05/09 04:19:04;;;;;;;1.30;1.20;;;23.20;30.00;;;;;;5053076;28;20198;-42
2021/05/09 04:21:30;;;;;;;1.45;1.33;;;23.30;30.00;;;;;;5052885;28;20228;-43
2021/05/09 04:23:56;;;;;;;1.20;1.10;;;23.30;30.00;;;;;;5052290;28;20729;-40
2021/05/09 04:26:22;;;;;;;1.27;1.17;;;23.20;30.00;;;;;;5052565;28;20206;-42
2021/05/09 04:28:49;;;;;;;1.50;1.30;;;23.20;30.00;;;;;;5052616;28;20605;-47
2021/05/09 04:31:15;;;;;;;1.10;1.00;;;23.30;30.00;;;;;;5053201;28;20565;-40
2021/05/09 04:33:40;;;;;;;1.20;1.10;;;23.20;30.00;;;;;;5052060;28;20213;-45
2021/05/09 04:36:06;;;;;;;1.30;1.00;;;23.20;30.00;;;;;;5052764;28;20202;-41
2021/05/09 04:38:32;;;;;;;1.13;1.00;;;23.20;30.00;;;;;;5052429;28;20671;-46
2021/05/09 04:40:58;;;;;;;1.30;1.08;;;23.20;30.00;;;;;;5052354;28;20282;-42
2021/05/09 04:43:24;;;;;;;1.20;1.20;;;23.20;30.00;;;;;;5051557;28;20501;-40
2021/05/09 04:45:50;;;;;;;1.98;1.20;;;23.30;30.00;;;;;;5051803;28;20213;-41
2021/05/09 04:48:16;;;;;;;1.77;1.10;;;23.20;30.00;;;;;;5052526;28;20228;-45
2021/05/09 04:50:42;;;;;;;1.20;1.10;;;23.30;30.10;;;;;;5052684;28;20194;-42
2021/05/09 04:53:08;;;;;;;1.25;1.15;;;23.30;30.10;;;;;;5052274;28;20206;-45
2021/05/09 04:55:34;;;;;;;1.27;1.17;;;23.30;30.00;;;;;;5051972;28;20232;-44
2021/05/09 04:58:00;;;;;;;1.00;1.00;;;23.30;30.00;;;;;;5052508;28;20206;-43
2021/05/09 05:00:26;;;;;;;1.10;1.00;;;23.30;29.90;;;;;;5052260;28;20209;-42
2021/05/09 05:02:52;;;;;;;1.33;1.17;;;23.30;29.80;;;;;;5052123;28;20225;-45
2021/05/09 05:05:18;;;;;;;1.20;1.10;;;23.30;29.90;;;;;;5051698;28;20628;-49
2021/05/09 05:07:44;;;;;;;1.90;1.10;;;23.30;29.80;;;;;;5052689;28;20210;-49
2021/05/09 05:10:10;;;;;;;1.85;1.30;;;23.30;29.80;;;;;;5051971;28;20653;-46
2021/05/09 05:12:36;;;;;;;1.10;1.00;;;23.30;29.70;;;;;;5040988;28;20280;-43
2021/05/09 05:15:02;;;;;;;1.77;1.00;;;23.30;29.80;;;;;;5046967;28;20267;-48
2021/05/09 05:17:28;;;;;;;1.42;1.33;;;23.30;29.80;;;;;;5051312;28;20552;-50
2021/05/09 05:19:54;;;;;;;2.08;1.40;;;23.30;29.80;;;;;;5052450;28;20599;-46
2021/05/09 05:22:20;;;;;;;1.15;1.05;;;23.30;29.80;;;;;;5051233;28;20214;-43
2021/05/09 05:24:46;;;;;;;1.13;1.02;;;23.30;29.80;;;;;;5051274;28;20217;-45
2021/05/09 05:27:12;;;;;;;1.20;1.10;;;23.30;29.70;;;;;;5050944;28;20202;-45
2021/05/09 05:29:38;;;;;;;0.93;0.90;;;23.30;29.70;;;;;;5052023;28;20202;-48
2021/05/09 05:32:04;;;;;;;1.13;1.00;;;23.30;29.70;;;;;;5051679;28;20201;-40
2021/05/09 05:34:30;;;;;;;1.10;1.00;;;23.30;29.70;;;;;;5051116;28;20230;-41
2021/05/09 05:36:56;;;;;;;0.90;0.90;;;23.30;29.60;;;;;;5051539;28;20300;-42
2021/05/09 05:39:22;;;;;;;1.38;1.02;;;23.30;29.70;;;;;;5051254;28;20213;-40
2021/05/09 05:41:48;;;;;;;1.20;1.00;;;23.30;29.70;;;;;;5051448;28;20248;-43
2021/05/09 05:44:14;;;;;;;1.00;1.00;;;23.30;29.70;;;;;;5050014;28;20214;-42
2021/05/09 05:46:40;;;;;;;0.90;0.90;;;23.30;29.70;;;;;;5050960;28;20599;-44
2021/05/09 05:49:06;;;;;;;1.20;1.10;;;23.30;29.60;;;;;;5051115;28;20287;-45
2021/05/09 05:51:32;;;;;;;1.42;1.20;;;23.30;29.60;;;;;;5049770;28;20206;-45
2021/05/09 05:53:58;;;;;;;1.20;1.10;;;23.30;29.70;;;;;;5050639;28;20225;-44
2021/05/09 05:56:24;;;;;;;1.35;1.10;;;23.30;29.60;;;;;;5051588;28;20209;-48
2021/05/09 05:58:50;;;;;;;0.88;0.88;;;23.30;29.70;;;;;;5051393;28;20574;-44
2021/05/09 06:01:16;;;;;;;1.17;1.17;;;23.30;29.60;;;;;;5050717;28;20205;-41
2021/05/09 06:03:42;;;;;;;1.17;1.08;;;23.30;29.70;;;;;;5049988;28;20230;-45
2021/05/09 06:06:08;;;;;;;0.95;0.90;;;23.30;29.70;;;;;;5050926;28;20206;-47
2021/05/09 06:08:34;;;;;;;1.27;1.00;;;23.30;29.60;;;;;;5050854;28;20228;-45
2021/05/09 06:11:00;;;;;;;1.25;1.00;;;23.30;29.60;;;;;;5049878;28;20252;-40
2021/05/09 06:13:27;;;;;;;0.95;0.95;;;23.30;29.60;;;;;;5050057;28;20272;-43
2021/05/09 06:15:53;;;;;;;1.27;1.02;;;23.30;29.60;;;;;;5051090;28;20213;-46
2021/05/09 06:18:19;;;;;;;1.52;0.90;;;23.30;29.60;;;;;;5047872;28;20248;-42
2021/05/09 06:20:45;;;;;;;1.25;1.13;;;23.30;29.70;;;;;;5050658;28;20502;-43
2021/05/09 06:23:11;;;;;;;1.23;1.13;;;23.40;29.70;;;;;;5050882;28;20229;-41
2021/05/09 06:25:37;;;;;;;1.10;1.00;;;23.40;29.70;;;;;;5049613;28;20248;-48
2021/05/09 06:28:03;;;;;;;1.60;1.10;;;23.30;29.60;;;;;;5050741;28;20247;-45
2021/05/09 06:30:29;;;;;;;1.10;1.10;;;23.40;29.60;;;;;;5051109;28;20202;-42
2021/05/09 06:32:55;;;;;;;1.40;1.30;;;23.40;29.70;;;;;;5050268;28;20210;-50
2021/05/09 06:35:21;;;;;;;1.10;1.00;;;23.40;29.80;;;;;;5051071;28;20202;-41
2021/05/09 06:37:50;;;;;;;0.90;0.90;;;23.30;29.60;;;;;;5050305;28;20203;-47
2021/05/09 06:40:17;;;;;;;1.00;1.00;;;23.30;29.60;;;;;;5051018;28;20641;-41
2021/05/09 06:42:43;;;;;;;1.13;1.00;;;23.40;29.60;;;;;;5049838;28;20240;-43
2021/05/09 06:45:11;;;;;;;0.93;0.90;;;23.40;30.20;;;;;;5047896;28;20221;-43
2021/05/09 06:47:37;;;;;;;1.20;1.02;;;23.40;29.60;;;;;;5048672;28;20201;-42
2021/05/09 06:50:03;;;;;;;1.10;1.00;;;23.40;29.60;;;;;;5050555;28;20198;-43
2021/05/09 06:52:29;;;;;;;1.48;1.08;;;23.40;29.70;;;;;;5050226;28;20300;-42
2021/05/09 06:54:55;;;;;;;1.10;1.00;;;23.40;29.60;;;;;;5049583;28;20709;-43
2021/05/09 06:57:21;;;;;;;1.25;1.15;;;23.40;29.60;;;;;;5050334;28;20209;-43
2021/05/09 06:59:47;;;;;;;1.05;0.80;;;23.40;29.70;;;;;;5050260;28;20236;-48
2021/05/09 07:02:13;;;;;;;0.90;0.90;;;23.40;29.60;;;;;;5050133;28;20247;-45
2021/05/09 07:04:39;;;;;;;1.10;1.07;;;23.40;29.60;;;;;;5049555;28;20225;-45
2021/05/09 07:07:05;;;;;;;1.30;1.20;;;23.40;29.60;;;;;;5044672;28;20203;-42
2021/05/09 07:09:31;;;;;;;2.80;1.65;;;23.40;30.00;;;;;;5049840;28;20204;-44
2021/05/09 07:11:57;;;;;;;1.83;1.20;;;23.40;30.00;;;;;;5050500;28;20244;-43
2021/05/09 07:14:23;;;;;;;1.60;1.10;;;23.40;30.00;;;;;;5048308;28;20230;-43
2021/05/09 07:16:49;;;;;;;3.23;1.20;;;23.50;30.00;;;;;;5048930;28;20205;-42
2021/05/09 07:19:16;;;;;;;1.38;1.15;;;23.50;31.00;;;;;;5049609;28;20212;-47
2021/05/09 07:21:43;;;;;;;1.48;1.38;;;23.50;31.10;;;;;;5047494;28;20214;-46
2021/05/09 07:24:09;;;;;;;2.70;1.45;;;23.50;30.90;;;;;;5049446;28;20221;-42
2021/05/09 07:26:35;;;;;;;4.70;1.88;;;23.50;30.80;;;;;;5035222;28;20203;-47
2021/05/09 07:29:01;;;;;;;2.22;1.65;;;23.50;31.60;;;;;;5047277;28;20217;-45
2021/05/09 07:31:27;;;;;;;4.53;1.77;;;23.40;29.70;;;;;;5049542;28;20202;-43
2021/05/09 07:33:53;;;;;;;3.30;1.10;;;23.30;28.20;;;;;;5048718;28;20228;-41
2021/05/09 07:36:19;;;;;;;1.40;1.23;;;23.20;27.50;;;;;;5049356;28;20206;-40
2021/05/09 07:38:45;;;;;;;1.43;1.33;;;23.30;27.20;;;;;;5049363;28;20205;-45
2021/05/09 07:41:11;;;;;;;1.48;1.20;;;23.20;27.70;;;;;;5049834;28;20198;-42
2021/05/09 07:43:37;;;;;;;1.58;0.95;;;23.20;28.20;;;;;;5049255;28;20225;-44
2021/05/09 07:46:03;;;;;;;2.03;1.13;;;23.30;28.20;;;;;;5048481;28;20197;-41
2021/05/09 07:48:29;;;;;;;1.20;1.15;;;23.20;28.60;;;;;;5049003;28;20269;-45
2021/05/09 07:50:55;;;;;;;1.30;1.20;;;23.30;29.00;;;;;;5049463;28;20217;-41
2021/05/09 07:53:21;;;;;;;1.23;1.00;;;23.30;29.20;;;;;;5049437;28;20214;-45
2021/05/09 07:55:47;;;;;;;0.90;0.90;;;23.30;29.20;;;;;;5049199;28;20251;-48
2021/05/09 07:58:13;;;;;;;1.73;1.10;;;23.30;29.20;;;;;;5053593;22;20235;-53
2021/05/09 08:00:39;;;;;;;1.40;1.30;;;23.30;29.20;;;;;;5029233;28;20199;-43
2021/05/09 08:03:05;;;;;;;3.40;1.10;;;23.30;29.30;;;;;;5030097;28;20246;-48
2021/05/09 08:05:31;;;;;;;1.38;1.25;;;23.30;29.30;;;;;;5022162;28;20203;-50
2021/05/09 08:07:57;;;;;;;1.15;1.10;;;23.30;29.30;;;;;;5011537;28;20214;-44
2021/05/09 08:10:23;;;;;;;2.55;1.40;;;23.30;29.40;;;;;;5013933;28;20211;-50
2021/05/09 08:12:49;;;;;;;1.20;1.10;;;23.30;29.40;;;;;;5029153;28;20222;-51
2021/05/09 08:15:15;;;;;;;4.17;1.40;;;23.30;29.50;;;;;;5026975;28;20206;-48
2021/05/09 08:17:41;;;;;;;4.22;1.30;;;23.30;29.50;;;;;;5020921;28;20195;-50
2021/05/09 08:20:07;;;;;;;2.95;1.15;;;23.30;29.70;;;;;;5016255;28;20210;-55
2021/05/09 08:22:33;;;;;;;3.38;1.35;;;23.40;29.70;;;;;;5022183;28;20239;-50
2021/05/09 08:24:59;;;;;;;1.75;1.33;;;23.40;29.60;;;;;;5032668;28;20666;-54
2021/05/09 08:27:28;;;;;;;1.70;1.20;;;23.30;29.50;;;;;;5022273;28;20203;-58
2021/05/09 08:29:54;;;;;;;1.60;1.17;;;23.30;29.60;;;;;;5026745;28;20214;-49
2021/05/09 08:32:20;;;;;;;2.97;1.33;;;23.30;29.50;;;;;;5013696;28;20281;-47
2021/05/09 08:34:46;;;;;;;3.25;1.30;;;23.30;29.60;;;;;;5013475;28;20206;-49
2021/05/09 08:37:12;;;;;;;1.10;0.98;;;23.30;29.50;;;;;;5014182;28;20203;-48
2021/05/09 08:39:39;;;;;;;1.87;1.30;;;23.30;29.50;;;;;;5023611;28;20203;-48
2021/05/09 08:42:05;;;;;;;2.63;1.60;;;23.30;29.60;;;;;;5029650;28;20257;-46
2021/05/09 08:44:33;;;;;;;1.45;1.33;;;23.30;29.60;;;;;;5031974;28;20206;-51
2021/05/09 08:46:59;;;;;;;1.90;1.40;;;23.30;29.70;;;;;;5030486;28;20202;-45
2021/05/09 08:49:25;;;;;;;2.42;1.35;;;23.30;29.60;;;;;;5031652;28;20194;-48
2021/05/09 08:51:51;;;;;;;1.67;1.17;;;23.30;29.70;;;;;;5025715;28;20572;-49
2021/05/09 08:54:17;;;;;;;1.27;1.10;;;23.40;30.20;;;;;;5012805;28;20203;-49
2021/05/09 08:56:43;;;;;;;1.67;1.35;;;23.40;29.90;;;;;;5018917;28;20203;-46
2021/05/09 08:59:09;;;;;;;3.15;1.33;;;23.40;30.10;;;;;;5028490;28;20311;-44
2021/05/09 09:01:39;;;;;;;2.00;1.40;;;23.40;29.90;;;;;;5014447;28;20222;-42
2021/05/09 09:04:05;;;;;;;0.95;0.90;;;23.40;29.80;;;;;;5030961;28;20218;-43
2021/05/09 09:06:31;;;;;;;2.97;1.27;;;23.40;29.80;;;;;;5021223;28;20207;-44
2021/05/09 09:08:57;;;;;;;1.58;1.10;;;23.30;29.70;;;;;;5012860;28;20227;-42
2021/05/09 09:11:23;;;;;;;1.55;1.10;;;23.30;29.80;;;;;;5012482;28;20700;-43
2021/05/09 09:13:49;;;;;;;3.60;1.45;;;23.30;30.00;;;;;;5011695;28;20246;-42
2021/05/09 09:16:15;;;;;;;2.20;1.42;;;23.30;30.00;;;;;;5017979;28;20658;-50
2021/05/09 09:18:41;;;;;;;1.30;1.10;;;23.30;30.00;;;;;;5031905;28;20199;-48
2021/05/09 09:21:07;;;;;;;1.55;1.00;;;23.30;30.00;;;;;;5031937;28;20569;-47
2021/05/09 09:23:33;;;;;;;1.47;1.37;;;23.30;30.00;;;;;;5031229;28;20230;-46
2021/05/09 09:25:59;;;;;;;1.30;1.05;;;23.30;30.00;;;;;;5030345;28;20260;-45
2021/05/09 09:28:25;;;;;;;3.80;1.50;;;23.30;30.00;;;;;;5012324;28;20203;-44
2021/05/09 09:30:52;;;;;;;2.97;1.10;;;23.30;30.10;;;;;;5013993;28;20207;-43
2021/05/09 09:33:18;;;;;;;2.47;1.20;;;23.30;30.00;;;;;;5017369;28;20220;-47
2021/05/09 09:35:44;;;;;;;1.45;1.10;;;23.30;30.20;;;;;;5011866;28;20230;-42
2021/05/09 09:38:10;;;;;;;1.55;1.20;;;23.30;30.10;;;;;;5016651;28;20273;-47
2021/05/09 09:40:36;;;;;;;2.10;1.25;;;23.30;30.20;;;;;;5031340;28;20201;-46
2021/05/09 09:43:02;;;;;;;1.23;1.10;;;23.30;30.20;;;;;;5028931;28;20261;-46
2021/05/09 09:45:28;;;;;;;2.70;1.30;;;23.30;30.30;;;;;;5011627;28;20199;-42
2021/05/09 09:47:54;;;;;;;3.97;1.20;;;23.30;30.30;;;;;;5023359;28;20234;-45
2021/05/09 09:50:20;;;;;;;1.53;1.20;;;23.30;30.30;;;;;;5031724;28;20210;-50
2021/05/09 09:52:46;;;;;;;1.67;1.10;;;23.30;30.40;;;;;;5022472;28;20628;-48
2021/05/09 09:55:12;;;;;;;1.48;1.00;;;23.30;30.30;;;;;;5011413;28;20199;-42
2021/05/09 09:57:38;;;;;;;1.10;1.00;;;23.30;30.30;;;;;;5024408;28;20214;-42
2021/05/09 10:00:04;;;;;;;1.42;1.10;;;23.30;30.10;;;;;;5021430;28;20205;-47
2021/05/09 10:02:30;;;;;;;1.67;1.00;;;23.30;30.00;;;;;;5017640;28;20238;-43
2021/05/09 10:04:56;;;;;;;1.80;1.20;;;23.30;30.00;;;;;;5023102;28;20552;-43
2021/05/09 10:07:22;;;;;;;1.52;1.08;;;23.30;30.00;;;;;;5018512;28;20257;-45
2021/05/09 10:09:48;;;;;;;1.73;1.30;;;23.30;30.00;;;;;;5015870;28;20255;-48
2021/05/09 10:12:14;;;;;;;2.17;1.17;;;23.30;30.00;;;;;;5024803;28;20226;-43
2021/05/09 10:14:40;;;;;;;1.33;1.23;;;23.30;29.90;;;;;;5029718;28;20206;-54
2021/05/09 10:17:06;;;;;;;1.50;1.08;;;23.30;29.90;;;;;;5028745;28;20209;-46
2021/05/09 10:19:32;;;;;;;3.05;1.33;;;23.30;29.90;;;;;;5015038;28;20207;-48
2021/05/09 10:21:58;;;;;;;1.08;0.90;;;23.30;29.90;;;;;;5018740;28;20227;-49
2021/05/09 10:24:24;;;;;;;2.13;1.10;;;23.30;29.80;;;;;;5024244;28;20203;-48
2021/05/09 10:26:50;;;;;;;1.67;1.23;;;23.30;29.80;;;;;;5011012;28;20646;-45
2021/05/09 10:29:16;;;;;;;1.98;1.35;;;23.40;29.90;;;;;;5018541;28;20194;-42
2021/05/09 10:31:42;;;;;;;1.20;1.10;;;23.40;29.90;;;;;;5027862;28;20325;-42
2021/05/09 10:34:08;;;;;;;1.10;1.00;;;23.40;29.90;;;;;;5015769;28;20548;-42
2021/05/09 10:36:34;;;;;;;2.92;1.42;;;23.40;29.80;;;;;;5030953;28;20260;-41
2021/05/09 10:39:00;;;;;;;1.90;0.90;;;23.40;29.90;;;;;;5027804;28;20275;-42
2021/05/09 10:41:26;;;;;;;1.98;1.02;;;23.40;29.80;;;;;;5020005;28;20226;-46
2021/05/09 10:43:52;;;;;;;1.73;1.27;;;23.40;29.80;;;;;;5020411;28;20203;-44
2021/05/09 10:46:18;;;;;;;2.17;1.20;;;23.40;29.80;;;;;;5029969;28;20210;-44
2021/05/09 10:48:44;;;;;;;1.35;1.02;;;23.40;29.70;;;;;;5029379;28;20278;-44
2021/05/09 10:51:11;;;;;;;1.73;1.20;;;23.40;29.90;;;;;;5010615;28;20226;-47
2021/05/09 10:53:38;;;;;;;2.28;1.38;;;23.40;30.00;;;;;;5011697;28;20203;-47
2021/05/09 10:56:04;;;;;;;2.38;1.40;;;23.50;30.00;;;;;;5014534;28;20214;-45
2021/05/09 10:58:30;;;;;;;1.33;1.08;;;23.50;29.90;;;;;;5029638;28;20258;-49
2021/05/09 11:00:56;;;;;;;2.10;1.23;;;23.50;30.00;;;;;;5016875;28;20202;-50
2021/05/09 11:03:22;;;;;;;2.33;1.30;;;23.50;30.40;;;;;;5017099;28;20591;-48
2021/05/09 11:05:48;;;;;;;0.90;0.90;;;23.50;30.20;;;;;;5015068;28;20590;-43
2021/05/09 11:08:14;;;;;;;3.10;1.33;;;23.50;30.10;;;;;;5016963;28;20213;-44
2021/05/09 11:10:40;;;;;;;1.50;1.40;;;23.50;30.20;;;;;;5028278;28;20198;-42
2021/05/09 11:13:06;;;;;;;1.85;1.10;;;23.50;30.00;;;;;;5022711;28;20223;-42
2021/05/09 11:15:32;;;;;;;2.97;1.52;;;23.50;30.20;;;;;;5019993;28;20209;-45
2021/05/09 11:17:58;;;;;;;2.55;1.42;;;23.50;30.20;;;;;;5028560;28;20198;-47
2021/05/09 11:20:24;;;;;;;1.75;1.30;;;23.50;30.50;;;;;;5030296;28;20201;-43
2021/05/09 11:22:50;;;;;;;2.83;1.27;;;23.50;30.20;;;;;;5012884;28;20226;-49
2021/05/09 11:25:16;;;;;;;1.67;1.45;;;23.50;30.50;;;;;;5018222;28;20199;-50
2021/05/09 11:27:42;;;;;;;2.13;1.25;;;23.50;30.40;;;;;;5016473;28;20560;-44
2021/05/09 11:30:08;;;;;;;2.72;1.30;;;23.50;30.40;;;;;;5019518;28;20232;-42
2021/05/09 11:32:35;;;;;;;2.05;1.40;;;23.50;30.40;;;;;;5025540;28;20636;-42
2021/05/09 11:35:03;;;;;;;2.25;1.50;;;23.50;30.40;;;;;;5024979;28;20289;-43
2021/05/09 11:37:29;;;;;;;2.03;1.70;;;23.50;30.40;;;;;;5016560;28;20206;-49
2021/05/09 11:39:55;;;;;;;2.53;1.48;;;23.50;30.60;;;;;;5017180;28;20652;-53
2021/05/09 11:42:21;;;;;;;3.90;1.60;;;23.50;30.50;;;;;;5012896;28;20227;-45
2021/05/09 11:44:47;;;;;;;3.83;2.00;;;23.50;30.50;;;;;;5015018;28;20215;-42
2021/05/09 11:47:13;;;;;;;2.17;1.98;;;23.50;30.30;;;;;;5023469;28;20571;-47
2021/05/09 11:49:39;;;;;;;3.55;2.00;;;23.50;30.40;;;;;;5018290;28;20441;-45
2021/05/09 11:52:05;;;;;;;2.92;1.80;;;23.40;30.40;;;;;;5028493;28;20225;-45
2021/05/09 11:54:31;;;;;;;3.22;1.80;;;23.50;30.30;;;;;;5021852;28;20199;-46
2021/05/09 11:56:57;;;;;;;3.25;1.80;;;23.50;30.50;;;;;;5022449;28;20207;-43
2021/05/09 11:59:23;;;;;;;4.47;2.45;;;23.50;30.50;;;;;;5014112;28;20619;-45
2021/05/09 12:01:49;;;;;;;6.45;3.50;;;23.50;31.80;;;;;;5020507;28;20226;-51
2021/05/09 12:04:15;;;;;;;4.05;3.28;;;23.60;31.80;;;;;;5026159;28;20214;-43
2021/05/09 12:06:41;;;;;;;3.95;3.15;;;23.60;32.10;;;;;;5033108;28;20198;-47
2021/05/09 12:09:07;;;;;;;7.32;3.25;;;23.70;32.20;;;;;;5033678;28;20249;-45
2021/05/09 12:11:33;;;;;;;3.78;3.00;;;23.70;32.60;;;;;;5032126;28;20752;-50
2021/05/09 12:13:59;;;;;;;5.47;3.00;;;23.70;32.10;;;;;;5019900;28;20206;-43
2021/05/09 12:16:25;;;;;;;4.75;2.70;;;23.70;32.00;;;;;;5033124;28;20198;-46
2021/05/09 12:18:51;;;;;;;5.38;3.05;;;23.70;32.00;;;;;;5032407;28;20203;-48
2021/05/09 12:21:17;;;;;;;5.15;2.60;;;23.70;31.70;;;;;;5032138;28;20722;-48
2021/05/09 12:23:43;;;;;;;3.58;2.47;;;23.80;31.70;;;;;;5030986;28;20238;-45
2021/05/09 12:26:09;;;;;;;4.18;2.88;;;23.70;31.50;;;;;;5022083;28;20584;-42
2021/05/09 12:28:35;;;;;;;3.85;2.53;;;23.70;31.40;;;;;;5031104;28;20206;-42
2021/05/09 12:31:01;;;;;;;3.45;2.00;;;23.70;31.20;;;;;;5031018;28;20237;-43
2021/05/09 12:33:27;;;;;;;3.25;2.20;;;23.70;31.00;;;;;;5031799;28;20199;-42
2021/05/09 12:35:54;;;;;;;3.47;2.10;;;23.70;30.90;;;;;;5032400;28;20202;-44
2021/05/09 12:38:21;;;;;;;5.05;1.98;;;23.70;30.70;;;;;;5032074;28;20203;-43
2021/05/09 12:40:47;;;;;;;2.85;1.98;;;23.70;30.70;;;;;;5030424;28;20210;-44